createdAt,value
2023-02-22T00:00:00.499Z,7.1
2023-02-22T00:10:00.460Z,7.9
2023-02-22T00:20:00.473Z,7.2
2023-02-22T00:30:00.512Z,5.8
2023-02-22T00:40:00.518Z,12.0
2023-02-22T00:50:00.461Z,9.3
2023-02-22T01:00:00.506Z,10.7
2023-02-22T01:10:00.460Z,9.9
2023-02-22T01:20:00.527Z,7.8
2023-02-22T01:30:00.490Z,8.3
2023-02-22T01:40:00.542Z,8.2
2023-02-22T01:50:00.463Z,10.1
2023-02-22T02:00:00.529Z,9.3
2023-02-22T02:10:00.506Z,9.2
2023-02-22T02:20:00.493Z,9.6
2023-02-22T02:30:00.499Z,12.1
2023-02-22T02:40:00.550Z,11.2
2023-02-22T02:50:00.517Z,10.2
2023-02-22T03:00:00.567Z,7.7
2023-02-22T03:10:00.458Z,8.6
2023-02-22T03:20:00.494Z,10.9
2023-02-22T03:30:00.517Z,11.1
2023-02-22T03:40:00.519Z,11.2
2023-02-22T03:50:00.516Z,10.6
2023-02-22T04:00:00.527Z,11.6
2023-02-22T04:10:00.485Z,11.2
2023-02-22T04:20:00.596Z,12.0
2023-02-22T04:30:00.471Z,15.6
2023-02-22T04:40:00.496Z,15.3
2023-02-22T04:50:00.486Z,18.5
2023-02-22T05:00:00.471Z,14.1
2023-02-22T05:10:00.464Z,11.2
2023-02-22T05:20:00.479Z,11.3
2023-02-22T05:30:00.466Z,19.5
2023-02-22T05:40:00.527Z,14.0
2023-02-22T05:50:00.495Z,17.2
2023-02-22T06:00:00.489Z,14.8
2023-02-22T06:10:00.523Z,14.6
2023-02-22T06:20:00.476Z,10.4
2023-02-22T06:30:00.503Z,16.9
2023-02-22T06:40:04.813Z,13.9
2023-02-22T06:50:00.477Z,26.3
2023-02-22T07:00:00.517Z,20.6
2023-02-22T07:10:00.473Z,15.4
2023-02-22T07:20:00.511Z,14.6
2023-02-22T07:30:00.480Z,14.4
2023-02-22T07:40:00.524Z,14.0
2023-02-22T07:50:00.476Z,12.3
2023-02-22T08:00:00.518Z,12.1
2023-02-22T08:10:00.486Z,13.0
2023-02-22T08:20:00.475Z,12.8
2023-02-22T08:30:00.480Z,12.1
2023-02-22T08:40:00.531Z,13.4
2023-02-22T08:50:00.472Z,13.4
2023-02-22T09:00:00.513Z,13.7
2023-02-22T09:10:00.471Z,15.5
2023-02-22T09:20:00.572Z,15.1
2023-02-22T09:30:00.467Z,14.5
2023-02-22T09:40:03.491Z,14.3
2023-02-22T09:50:00.462Z,14.7
2023-02-22T10:00:00.554Z,14.5
2023-02-22T10:10:00.494Z,13.3
2023-02-22T10:20:00.501Z,14.4
2023-02-22T10:30:00.485Z,14.9
2023-02-22T10:40:00.537Z,14.5
2023-02-22T10:50:00.528Z,14.2
2023-02-22T11:00:00.518Z,13.8
2023-02-22T11:10:00.489Z,17.1
2023-02-22T11:20:00.481Z,14.3
2023-02-22T11:30:00.457Z,19.1
2023-02-22T11:40:00.524Z,11.2
2023-02-22T11:50:00.497Z,13.2
2023-02-22T12:00:00.579Z,12.2
2023-02-22T12:10:00.494Z,10.3
2023-02-22T12:20:00.463Z,9.1
2023-02-22T12:30:00.475Z,3.4
2023-02-22T12:40:00.543Z,1.3
2023-02-22T12:50:00.478Z,3.0
2023-02-22T13:00:00.514Z,5.4
2023-02-22T13:10:00.475Z,7.2
2023-02-22T13:20:00.459Z,11.0
2023-02-22T13:30:00.453Z,5.3
2023-02-22T13:40:00.497Z,7.0
2023-02-22T13:50:00.471Z,7.9
2023-02-22T14:00:00.508Z,10.7
2023-02-22T14:10:00.544Z,13.0
2023-02-22T14:20:00.499Z,4.9
2023-02-22T14:30:00.652Z,6.3
2023-02-22T14:40:00.509Z,6.5
2023-02-22T14:50:00.508Z,7.2
2023-02-22T15:00:00.837Z,7.1
2023-02-22T15:10:00.466Z,8.2
2023-02-22T15:20:00.452Z,7.2
2023-02-22T15:30:00.499Z,6.9
2023-02-22T15:40:00.504Z,45.2
2023-02-22T15:50:00.543Z,34.1
2023-02-22T16:00:00.661Z,6.0
2023-02-22T16:10:00.565Z,30.6
2023-02-22T16:20:00.475Z,75.7
2023-02-22T16:30:00.539Z,6.5
2023-02-22T16:40:00.511Z,4.2
2023-02-22T16:50:00.471Z,8.9
2023-02-22T17:00:00.536Z,4.6
2023-02-22T17:10:00.460Z,8.1
2023-02-22T17:20:00.458Z,10.2
2023-02-22T17:30:00.456Z,5.8
2023-02-22T17:40:00.555Z,11.6
2023-02-22T17:50:00.472Z,11.9
2023-02-22T18:00:00.505Z,10.1
2023-02-22T18:10:00.483Z,14.1
2023-02-22T18:20:00.486Z,43.8
2023-02-22T18:30:00.457Z,37.3
2023-02-22T18:40:00.476Z,29.9
2023-02-22T18:50:02.052Z,18.3
2023-02-22T19:00:00.616Z,17.1
2023-02-22T19:10:00.479Z,42.5
2023-02-22T19:20:00.477Z,25.3
2023-02-22T19:30:00.478Z,44.1
2023-02-22T19:40:01.622Z,72.1
2023-02-22T19:50:00.493Z,29.9
2023-02-22T20:00:00.491Z,41.3
2023-02-22T20:10:00.472Z,21.6
2023-02-22T20:20:00.465Z,46.5
2023-02-22T20:30:00.476Z,75.6
2023-02-22T20:40:00.506Z,44.9
2023-02-22T20:50:00.457Z,40.1
2023-02-22T21:00:00.520Z,41.1
2023-02-22T21:10:00.466Z,101.4
2023-02-22T21:20:00.481Z,117.4
2023-02-22T21:30:00.518Z,51.0
2023-02-22T21:40:00.536Z,59.1
2023-02-22T21:50:00.463Z,41.1
2023-02-22T22:00:00.508Z,29.8
2023-02-22T22:10:00.490Z,54.7
2023-02-22T22:20:00.469Z,41.7
2023-02-22T22:30:00.474Z,103.2
2023-02-22T22:40:00.495Z,110.7
2023-02-22T22:50:00.460Z,39.6
2023-02-22T23:00:00.493Z,52.8
2023-02-22T23:10:00.464Z,49.8
2023-02-22T23:20:00.483Z,45.0
2023-02-22T23:30:00.485Z,40.1
2023-02-22T23:40:00.533Z,31.7
2023-02-22T23:50:00.465Z,46.5
